createdAt,value
2022-08-17T00:00:34.638Z,18.60
2022-08-17T00:03:46.693Z,17.00
2022-08-17T00:06:18.692Z,18.00
2022-08-17T00:08:53.930Z,18.30
2022-08-17T00:11:25.529Z,16.80
2022-08-17T00:13:59.768Z,17.30
2022-08-17T00:16:56.140Z,16.70
2022-08-17T00:19:25.646Z,19.20
2022-08-17T00:22:32.032Z,18.90
2022-08-17T00:24:48.625Z,16.70
2022-08-17T00:27:16.403Z,21.40
2022-08-17T00:29:45.834Z,16.40
2022-08-17T00:33:12.286Z,17.40
2022-08-17T00:35:08.706Z,18.50
2022-08-17T00:37:36.693Z,17.20
2022-08-17T00:40:05.803Z,16.40
2022-08-17T00:42:33.780Z,16.30
2022-08-17T00:45:02.082Z,18.00
2022-08-17T00:47:30.181Z,16.90
2022-08-17T00:50:00.581Z,15.70
2022-08-17T00:52:39.954Z,17.60
2022-08-17T00:55:10.301Z,15.00
2022-08-17T00:57:51.184Z,16.30
2022-08-17T01:00:28.305Z,17.20
2022-08-17T01:03:11.878Z,19.10
2022-08-17T01:05:42.292Z,15.40
2022-08-17T01:08:19.619Z,17.60
2022-08-17T01:10:58.125Z,16.70
2022-08-17T01:13:40.999Z,16.20
2022-08-17T01:16:25.014Z,17.10
2022-08-17T01:18:59.474Z,17.00
2022-08-17T01:21:33.197Z,16.10
2022-08-17T01:24:02.077Z,17.90
2022-08-17T01:26:33.140Z,18.00
2022-08-17T01:29:04.317Z,16.50
2022-08-17T01:31:40.128Z,17.00
2022-08-17T01:34:12.424Z,17.60
2022-08-17T01:36:44.607Z,15.80
2022-08-17T01:39:50.444Z,17.50
2022-08-17T01:42:36.507Z,17.80
2022-08-17T01:45:18.125Z,17.50
2022-08-17T01:47:46.100Z,19.60
2022-08-17T01:50:21.085Z,19.20
2022-08-17T01:52:57.335Z,18.60
2022-08-17T01:55:39.887Z,20.10
2022-08-17T01:58:09.864Z,17.50
2022-08-17T02:00:51.739Z,18.40
2022-08-17T02:03:29.890Z,16.90
2022-08-17T02:05:57.861Z,17.80
2022-08-17T02:08:39.563Z,15.90
2022-08-17T02:11:20.876Z,16.50
2022-08-17T02:13:55.043Z,17.40
2022-08-17T02:16:37.470Z,17.30
2022-08-17T02:19:16.073Z,19.50
2022-08-17T02:21:47.762Z,16.80
2022-08-17T02:24:58.160Z,17.60
2022-08-17T02:27:11.374Z,15.70
2022-08-17T02:29:39.292Z,18.10
2022-08-17T02:32:20.818Z,17.20
2022-08-17T02:34:59.481Z,20.40
2022-08-17T02:37:31.570Z,14.80
2022-08-17T02:40:00.141Z,15.30
2022-08-17T02:42:34.902Z,19.30
2022-08-17T02:45:05.730Z,14.90
2022-08-17T02:47:34.767Z,15.00
2022-08-17T02:50:04.228Z,15.70
2022-08-17T02:52:42.554Z,15.50
2022-08-17T02:55:23.235Z,18.10
2022-08-17T02:57:52.640Z,17.50
2022-08-17T03:00:34.031Z,16.20
2022-08-17T03:03:05.340Z,16.00
2022-08-17T03:05:36.959Z,18.40
2022-08-17T03:08:07.205Z,15.40
2022-08-17T03:10:42.101Z,13.50
2022-08-17T03:13:12.712Z,18.00
2022-08-17T03:15:45.208Z,16.80
2022-08-17T03:18:24.860Z,16.80
2022-08-17T03:21:01.173Z,17.40
2022-08-17T03:23:29.551Z,15.20
2022-08-17T03:25:58.667Z,15.00
2022-08-17T03:28:28.181Z,15.60
2022-08-17T03:30:55.859Z,16.90
2022-08-17T03:33:23.612Z,16.90
2022-08-17T03:35:52.195Z,16.10
2022-08-17T03:38:20.411Z,17.20
2022-08-17T03:40:56.997Z,17.10
2022-08-17T03:43:31.913Z,16.70
2022-08-17T03:46:34.723Z,16.30
2022-08-17T03:49:27.783Z,19.70
2022-08-17T03:52:15.741Z,16.80
2022-08-17T03:55:03.652Z,16.20
2022-08-17T03:57:32.182Z,17.80
2022-08-17T03:59:59.908Z,17.50
2022-08-17T04:02:34.232Z,17.40
2022-08-17T04:05:02.427Z,15.80
2022-08-17T04:07:31.985Z,15.60
2022-08-17T04:10:00.255Z,15.80
2022-08-17T04:12:30.980Z,17.20
2022-08-17T04:14:59.450Z,17.50
2022-08-17T04:17:29.772Z,16.30
2022-08-17T04:19:58.005Z,21.80
2022-08-17T04:22:31.431Z,18.40
2022-08-17T04:25:15.889Z,18.20
2022-08-17T04:27:43.589Z,18.40
2022-08-17T04:30:12.687Z,18.20
2022-08-17T04:33:07.235Z,18.20
2022-08-17T04:35:43.682Z,20.20
2022-08-17T04:38:16.884Z,20.00
2022-08-17T04:41:04.017Z,21.80
2022-08-17T04:43:34.220Z,18.10
2022-08-17T04:46:12.666Z,17.00
2022-08-17T04:48:48.180Z,18.40
2022-08-17T04:51:36.428Z,18.00
2022-08-17T04:54:12.462Z,17.20
2022-08-17T04:56:41.004Z,18.30
2022-08-17T04:59:16.460Z,22.80
2022-08-17T05:01:47.468Z,23.10
2022-08-17T05:04:34.522Z,20.70
2022-08-17T05:07:04.501Z,25.50
2022-08-17T05:09:32.677Z,23.60
2022-08-17T05:12:02.372Z,21.60
2022-08-17T05:14:32.952Z,23.30
2022-08-17T05:17:07.003Z,23.80
2022-08-17T05:19:38.707Z,24.10
2022-08-17T05:22:06.707Z,21.20
2022-08-17T05:24:43.141Z,21.00
2022-08-17T05:27:11.814Z,21.10
2022-08-17T05:29:46.669Z,22.50
2022-08-17T05:32:38.734Z,25.00
2022-08-17T05:35:02.397Z,20.90
2022-08-17T05:37:30.037Z,21.10
2022-08-17T05:39:57.921Z,22.20
2022-08-17T05:42:25.517Z,18.30
2022-08-17T05:44:53.098Z,18.40
2022-08-17T05:47:23.981Z,19.80
2022-08-17T05:49:53.839Z,19.60
2022-08-17T05:53:03.195Z,20.20
2022-08-17T05:55:56.555Z,20.80
2022-08-17T05:58:34.413Z,18.80
2022-08-17T06:01:20.454Z,19.60
2022-08-17T06:04:15.892Z,17.20
2022-08-17T06:07:24.998Z,18.60
2022-08-17T06:10:14.660Z,19.20
2022-08-17T06:13:40.745Z,18.90
2022-08-17T06:16:28.199Z,18.80
2022-08-17T06:19:44.068Z,18.00
2022-08-17T06:22:16.487Z,21.50
2022-08-17T06:24:56.944Z,18.40
2022-08-17T06:27:54.098Z,20.10
2022-08-17T06:30:26.128Z,20.20
2022-08-17T06:33:02.818Z,20.80
2022-08-17T06:36:09.237Z,19.60
2022-08-17T06:39:01.856Z,20.40
2022-08-17T06:41:44.836Z,20.40
2022-08-17T06:44:43.336Z,22.50
2022-08-17T06:47:34.769Z,44.20
2022-08-17T06:50:18.324Z,22.50
2022-08-17T06:53:05.245Z,22.80
2022-08-17T06:56:02.025Z,22.20
2022-08-17T06:58:33.400Z,20.80
2022-08-17T07:01:10.429Z,20.60
2022-08-17T07:03:54.587Z,20.90
2022-08-17T07:06:29.719Z,17.80
2022-08-17T07:09:08.247Z,17.50
2022-08-17T07:11:51.839Z,16.30
2022-08-17T07:14:37.637Z,15.60
2022-08-17T07:17:13.589Z,16.20
2022-08-17T07:19:45.691Z,15.80
2022-08-17T07:22:22.115Z,16.70
2022-08-17T07:25:04.154Z,17.00
2022-08-17T07:27:39.592Z,15.50
2022-08-17T07:30:28.775Z,19.90
2022-08-17T07:33:09.153Z,16.50
2022-08-17T07:35:44.749Z,16.70
2022-08-17T07:38:28.263Z,16.50
2022-08-17T07:41:05.424Z,16.10
2022-08-17T07:43:42.236Z,15.30
2022-08-17T07:46:54.825Z,17.30
2022-08-17T07:49:35.954Z,17.50
2022-08-17T07:52:47.988Z,18.80
2022-08-17T07:54:58.443Z,15.90
2022-08-17T07:57:35.705Z,16.10
2022-08-17T08:00:23.874Z,15.60
2022-08-17T08:03:31.995Z,16.70
2022-08-17T08:06:03.062Z,14.40
2022-08-17T08:08:42.366Z,16.20
2022-08-17T08:11:30.033Z,15.40
2022-08-17T08:14:29.489Z,18.30
2022-08-17T08:17:03.143Z,18.00
2022-08-17T08:19:32.960Z,16.00
2022-08-17T08:22:28.805Z,17.10
2022-08-17T08:25:15.139Z,17.30
2022-08-17T08:28:01.865Z,15.00
2022-08-17T08:30:34.274Z,16.40
2022-08-17T08:33:13.931Z,14.90
2022-08-17T08:36:13.845Z,16.10
2022-08-17T08:39:21.763Z,17.20
2022-08-17T08:42:29.447Z,15.30
2022-08-17T08:45:13.630Z,16.50
2022-08-17T08:48:46.147Z,15.30
2022-08-17T08:51:35.394Z,16.20
2022-08-17T08:54:08.946Z,16.00
2022-08-17T08:57:22.320Z,17.10
2022-08-17T09:00:19.193Z,15.20
2022-08-17T09:03:08.438Z,13.20
2022-08-17T09:06:02.918Z,14.30
2022-08-17T09:09:02.733Z,14.80
2022-08-17T09:12:02.046Z,14.30
2022-08-17T09:14:45.225Z,13.00
2022-08-17T09:17:35.768Z,14.10
2022-08-17T09:20:27.539Z,12.90
2022-08-17T09:23:12.646Z,13.80
2022-08-17T09:26:00.889Z,15.50
2022-08-17T09:28:38.313Z,15.00
2022-08-17T09:31:16.905Z,13.70
2022-08-17T09:33:48.973Z,13.20
2022-08-17T09:37:26.408Z,11.90
2022-08-17T09:40:03.147Z,15.40
2022-08-17T09:42:44.273Z,13.40
2022-08-17T09:45:30.432Z,14.20
2022-08-17T09:48:06.725Z,16.20
2022-08-17T09:51:04.094Z,12.30
2022-08-17T09:53:38.609Z,11.90
2022-08-17T09:56:24.189Z,14.30
2022-08-17T09:59:38.491Z,14.60
2022-08-17T10:02:55.978Z,12.40
2022-08-17T10:05:56.627Z,18.60
2022-08-17T10:08:38.540Z,14.20
2022-08-17T10:12:06.570Z,14.50
2022-08-17T10:15:08.047Z,14.40
2022-08-17T10:17:57.156Z,12.50
2022-08-17T10:20:52.322Z,12.00
2022-08-17T10:23:47.981Z,15.70
2022-08-17T10:26:26.900Z,13.50
2022-08-17T10:29:12.522Z,14.60
2022-08-17T10:31:47.163Z,13.90
2022-08-17T10:34:41.537Z,12.60
2022-08-17T10:37:12.135Z,14.10
2022-08-17T10:40:07.570Z,12.80
2022-08-17T10:43:00.253Z,16.20
2022-08-17T10:46:27.659Z,11.90
2022-08-17T10:48:43.993Z,11.30
2022-08-17T10:51:38.063Z,13.60
2022-08-17T10:54:27.424Z,14.90
2022-08-17T10:56:57.252Z,9.80
2022-08-17T10:59:37.547Z,16.50
2022-08-17T11:02:26.008Z,13.00
2022-08-17T11:05:24.428Z,13.80
2022-08-17T11:08:29.770Z,12.90
2022-08-17T11:11:13.467Z,13.30
2022-08-17T11:14:11.201Z,14.00
2022-08-17T11:17:19.068Z,18.00
2022-08-17T11:20:43.642Z,12.10
2022-08-17T11:24:07.345Z,10.80
2022-08-17T11:26:38.594Z,10.70
2022-08-17T11:29:30.825Z,9.90
2022-08-17T11:32:05.508Z,10.80
2022-08-17T11:34:34.889Z,10.60
2022-08-17T11:38:14.102Z,11.50
2022-08-17T11:41:10.761Z,11.90
2022-08-17T11:43:59.036Z,12.00
2022-08-17T11:47:20.646Z,10.10
2022-08-17T11:50:28.838Z,11.90
2022-08-17T11:52:56.804Z,12.60
2022-08-17T11:55:38.436Z,10.90
2022-08-17T11:58:31.154Z,11.80
2022-08-17T12:01:01.599Z,9.90
2022-08-17T12:03:32.038Z,9.70
2022-08-17T12:06:11.169Z,12.20
2022-08-17T12:08:43.711Z,9.60
2022-08-17T12:11:55.381Z,7.40
2022-08-17T12:14:40.096Z,9.60
2022-08-17T12:17:41.499Z,10.00
2022-08-17T12:20:21.801Z,9.60
2022-08-17T12:23:00.963Z,9.70
2022-08-17T12:25:40.993Z,10.20
2022-08-17T12:28:28.848Z,12.10
2022-08-17T12:31:04.758Z,13.40
2022-08-17T12:33:36.720Z,9.50
2022-08-17T12:36:08.811Z,9.00
2022-08-17T12:38:38.320Z,9.50
2022-08-17T12:41:28.334Z,10.80
2022-08-17T12:44:12.245Z,11.40
2022-08-17T12:47:10.010Z,11.80
2022-08-17T12:49:42.177Z,9.00
2022-08-17T12:52:25.225Z,10.00
2022-08-17T12:55:07.018Z,10.80
2022-08-17T12:57:55.909Z,10.90
2022-08-17T13:00:32.329Z,10.60
2022-08-17T13:03:06.029Z,10.90
2022-08-17T13:05:40.208Z,10.70
2022-08-17T13:08:17.950Z,10.70
2022-08-17T13:11:04.695Z,12.10
2022-08-17T13:13:38.786Z,11.60
2022-08-17T13:16:17.442Z,10.70
2022-08-17T13:19:08.406Z,12.30
2022-08-17T13:21:37.993Z,10.40
2022-08-17T13:24:11.476Z,11.10
2022-08-17T13:26:59.326Z,11.10
2022-08-17T13:29:44.938Z,11.70
2022-08-17T13:32:19.887Z,10.30
2022-08-17T13:35:14.173Z,12.10
2022-08-17T13:37:42.703Z,11.50
2022-08-17T13:40:10.584Z,10.70
2022-08-17T13:42:54.285Z,12.00
2022-08-17T13:45:38.883Z,10.30
2022-08-17T13:48:34.328Z,10.30
2022-08-17T13:51:15.528Z,10.00
2022-08-17T13:53:43.354Z,10.50
2022-08-17T13:56:43.774Z,10.60
2022-08-17T13:59:36.102Z,8.80
2022-08-17T14:02:13.617Z,11.90
2022-08-17T14:04:44.091Z,10.30
2022-08-17T14:07:12.937Z,9.50
2022-08-17T14:09:56.178Z,9.90
2022-08-17T14:12:31.129Z,9.80
2022-08-17T14:14:59.798Z,10.30
2022-08-17T14:17:36.356Z,12.30
2022-08-17T14:20:10.562Z,8.90
2022-08-17T14:22:44.510Z,12.00
2022-08-17T14:25:16.869Z,8.90
2022-08-17T14:27:53.498Z,10.70
2022-08-17T14:30:29.797Z,11.00
2022-08-17T14:32:59.060Z,11.40
2022-08-17T14:35:28.290Z,11.00
2022-08-17T14:37:57.535Z,9.20
2022-08-17T14:40:25.989Z,12.00
2022-08-17T14:42:57.656Z,11.20
2022-08-17T14:45:29.980Z,9.60
2022-08-17T14:48:07.581Z,9.10
2022-08-17T14:50:40.680Z,8.70
2022-08-17T14:53:11.478Z,8.40
2022-08-17T14:55:42.041Z,10.80
2022-08-17T14:58:09.855Z,11.60
2022-08-17T15:00:39.629Z,8.20
2022-08-17T15:03:07.696Z,10.20
2022-08-17T15:05:38.530Z,8.50
2022-08-17T15:08:07.895Z,9.40
2022-08-17T15:10:36.510Z,9.40
2022-08-17T15:13:04.282Z,11.40
2022-08-17T15:15:32.038Z,9.80
2022-08-17T15:18:00.251Z,10.70
2022-08-17T15:20:30.091Z,11.10
2022-08-17T15:22:59.414Z,10.40
2022-08-17T15:25:32.785Z,10.50
2022-08-17T15:28:01.838Z,12.20
2022-08-17T15:30:31.486Z,12.10
2022-08-17T15:33:00.631Z,9.50
2022-08-17T15:35:32.953Z,10.20
2022-08-17T15:38:11.235Z,10.10
2022-08-17T15:40:44.777Z,10.10
2022-08-17T15:43:22.033Z,10.00
2022-08-17T15:46:02.004Z,11.20
2022-08-17T15:48:41.928Z,11.70
2022-08-17T15:51:35.092Z,12.10
2022-08-17T15:54:18.704Z,10.60
2022-08-17T15:56:47.138Z,10.30
2022-08-17T15:59:17.208Z,8.90
2022-08-17T16:03:13.893Z,10.60
2022-08-17T16:04:32.718Z,11.80
2022-08-17T16:07:00.532Z,11.10
2022-08-17T16:09:28.769Z,10.10
2022-08-17T16:11:56.901Z,11.90
2022-08-17T16:14:34.092Z,12.80
2022-08-17T16:17:05.224Z,11.50
2022-08-17T16:19:52.895Z,10.80
2022-08-17T16:22:41.367Z,10.60
2022-08-17T16:25:20.826Z,12.50
2022-08-17T16:27:53.517Z,14.30
2022-08-17T16:30:25.277Z,10.70
2022-08-17T16:32:55.240Z,13.70
2022-08-17T16:35:26.698Z,11.10
2022-08-17T16:37:58.425Z,12.60
2022-08-17T16:40:31.346Z,10.50
2022-08-17T16:43:10.618Z,12.50
2022-08-17T16:45:40.625Z,11.30
2022-08-17T16:48:09.744Z,11.10
2022-08-17T16:50:40.537Z,11.90
2022-08-17T16:53:17.203Z,12.20
2022-08-17T16:55:49.401Z,9.20
2022-08-17T16:58:16.982Z,9.70
2022-08-17T17:00:48.845Z,16.70
2022-08-17T17:03:22.504Z,12.00
2022-08-17T17:06:07.306Z,13.90
2022-08-17T17:08:48.423Z,12.00
2022-08-17T17:11:34.208Z,15.40
2022-08-17T17:14:10.677Z,11.00
2022-08-17T17:16:49.956Z,15.60
2022-08-17T17:19:35.216Z,19.20
2022-08-17T17:22:03.278Z,15.80
2022-08-17T17:24:58.392Z,17.40
2022-08-17T17:27:59.124Z,13.30
2022-08-17T17:31:17.543Z,17.70
2022-08-17T17:34:07.645Z,12.90
2022-08-17T17:36:53.965Z,12.20
2022-08-17T17:39:43.545Z,17.50
2022-08-17T17:42:20.032Z,13.90
2022-08-17T17:45:20.312Z,14.60
2022-08-17T17:47:48.120Z,13.60
2022-08-17T17:50:20.178Z,16.70
2022-08-17T17:53:02.137Z,14.00
2022-08-17T17:55:38.900Z,14.50
2022-08-17T17:58:19.707Z,17.40
2022-08-17T18:01:08.469Z,15.80
2022-08-17T18:04:30.791Z,17.00
2022-08-17T18:07:26.525Z,18.40
2022-08-17T18:10:30.391Z,18.60
2022-08-17T18:13:41.960Z,29.10
2022-08-17T18:16:13.902Z,18.60
2022-08-17T18:18:45.889Z,18.50
2022-08-17T18:21:36.174Z,18.90
2022-08-17T18:24:08.550Z,17.20
2022-08-17T18:27:02.271Z,15.70
2022-08-17T18:29:47.669Z,25.30
2022-08-17T18:32:34.027Z,20.70
2022-08-17T18:35:30.445Z,18.80
2022-08-17T18:38:22.649Z,19.60
2022-08-17T18:41:20.345Z,21.70
2022-08-17T18:44:06.645Z,21.10
2022-08-17T18:46:37.718Z,20.30
2022-08-17T18:49:19.528Z,21.40
2022-08-17T18:51:47.284Z,30.20
2022-08-17T18:54:25.893Z,28.50
2022-08-17T18:57:00.575Z,33.20
2022-08-17T18:59:48.300Z,24.50
2022-08-17T19:02:36.042Z,22.50
2022-08-17T19:05:40.981Z,22.50
2022-08-17T19:08:19.128Z,20.30
2022-08-17T19:10:54.070Z,22.60
2022-08-17T19:13:30.862Z,19.20
2022-08-17T19:16:23.908Z,23.10
2022-08-17T19:18:58.826Z,18.00
2022-08-17T19:21:49.155Z,17.60
2022-08-17T19:24:26.359Z,16.70
2022-08-17T19:27:16.608Z,17.80
2022-08-17T19:30:08.399Z,18.20
2022-08-17T19:32:38.280Z,18.00
2022-08-17T19:35:13.600Z,17.20
2022-08-17T19:37:56.536Z,17.00
2022-08-17T19:40:54.605Z,18.30
2022-08-17T19:43:44.140Z,17.10
2022-08-17T19:46:26.056Z,23.90
2022-08-17T19:49:41.239Z,18.80
2022-08-17T19:52:39.682Z,17.40
2022-08-17T19:55:22.043Z,15.80
2022-08-17T19:58:11.919Z,13.70
2022-08-17T20:00:52.055Z,15.90
2022-08-17T20:04:09.955Z,17.80
2022-08-17T20:06:43.005Z,16.10
2022-08-17T20:09:33.359Z,15.00
2022-08-17T20:12:18.473Z,17.80
2022-08-17T20:15:09.972Z,15.20
2022-08-17T20:17:43.262Z,16.50
2022-08-17T20:20:48.234Z,19.00
2022-08-17T20:23:49.492Z,17.40
2022-08-17T20:26:27.531Z,17.60
2022-08-17T20:29:09.370Z,18.00
2022-08-17T20:32:05.549Z,17.60
2022-08-17T20:34:39.710Z,19.40
2022-08-17T20:37:14.994Z,18.90
2022-08-17T20:40:04.423Z,17.80
2022-08-17T20:42:34.876Z,19.30
2022-08-17T20:45:20.749Z,18.10
2022-08-17T20:50:56.005Z,22.30
2022-08-17T20:53:54.817Z,20.40
2022-08-17T20:56:44.429Z,18.70
2022-08-17T20:59:22.618Z,19.70
2022-08-17T21:02:08.885Z,18.10
2022-08-17T21:04:49.915Z,17.80
2022-08-17T21:07:41.067Z,18.40
2022-08-17T21:10:26.351Z,22.10
2022-08-17T21:13:29.750Z,17.00
2022-08-17T21:16:10.225Z,16.50
2022-08-17T21:18:40.656Z,21.10
2022-08-17T21:21:24.194Z,19.00
2022-08-17T21:24:21.106Z,17.70
2022-08-17T21:27:12.237Z,17.20
2022-08-17T21:30:01.843Z,19.20
2022-08-17T21:32:37.360Z,19.00
2022-08-17T21:35:11.022Z,18.00
2022-08-17T21:37:46.378Z,16.80
2022-08-17T21:40:17.081Z,17.50
2022-08-17T21:42:50.796Z,18.40
2022-08-17T21:45:30.146Z,16.10
2022-08-17T21:48:17.244Z,17.10
2022-08-17T21:51:03.766Z,17.70
2022-08-17T21:53:49.450Z,17.90
2022-08-17T21:56:28.344Z,19.10
2022-08-17T21:59:03.070Z,21.10
2022-08-17T22:01:39.501Z,18.50
2022-08-17T22:04:25.597Z,17.50
2022-08-17T22:06:57.154Z,18.80
2022-08-17T22:09:45.992Z,17.30
2022-08-17T22:12:24.273Z,17.70
2022-08-17T22:15:06.191Z,17.20
2022-08-17T22:17:46.439Z,17.40
2022-08-17T22:20:20.934Z,18.20
2022-08-17T22:23:06.913Z,16.70
2022-08-17T22:26:05.189Z,19.30
2022-08-17T22:28:55.610Z,17.30
2022-08-17T22:31:28.010Z,17.50
2022-08-17T22:33:59.949Z,21.00
2022-08-17T22:36:33.748Z,19.80
2022-08-17T22:39:08.249Z,19.60
2022-08-17T22:41:51.095Z,16.40
2022-08-17T22:44:37.760Z,22.70
2022-08-17T22:47:14.565Z,18.50
2022-08-17T22:49:58.169Z,18.20
2022-08-17T22:53:00.534Z,20.00
2022-08-17T22:55:51.202Z,18.10
2022-08-17T22:58:43.644Z,18.70
2022-08-17T23:01:34.788Z,21.70
2022-08-17T23:04:07.717Z,18.90
2022-08-17T23:06:42.385Z,21.60
2022-08-17T23:09:10.031Z,19.80
2022-08-17T23:11:52.421Z,22.20
2022-08-17T23:14:22.391Z,20.40
2022-08-17T23:16:51.112Z,20.00
2022-08-17T23:19:22.046Z,20.50
2022-08-17T23:21:55.350Z,18.00
2022-08-17T23:24:28.905Z,19.80
2022-08-17T23:26:59.077Z,18.80
2022-08-17T23:29:29.373Z,19.10
2022-08-17T23:32:01.234Z,18.30
2022-08-17T23:34:28.892Z,20.70
2022-08-17T23:36:56.760Z,19.50
2022-08-17T23:39:28.208Z,19.30
2022-08-17T23:42:05.217Z,20.30
2022-08-17T23:44:33.788Z,18.00
2022-08-17T23:47:04.868Z,20.70
2022-08-17T23:49:32.591Z,20.60
2022-08-17T23:52:04.143Z,17.50
2022-08-17T23:54:41.507Z,18.10
2022-08-17T23:57:33.481Z,22.40
